sensor_id;sensor_type;location;lat;lon;timestamp;temperature;humidity
82039;DHT22;71610;42.628;23.378;2024-01-15T06:43:47;22.40;24.20
82039;DHT22;71610;42.628;23.378;2024-01-15T06:46:24;22.40;24.20
82039;DHT22;71610;42.628;23.378;2024-01-15T06:48:50;22.40;24.10
82039;DHT22;71610;42.628;23.378;2024-01-15T06:51:16;22.50;24.00
82039;DHT22;71610;42.628;23.378;2024-01-15T06:53:42;22.50;23.90
82039;DHT22;71610;42.628;23.378;2024-01-15T06:56:08;22.50;24.30
82039;DHT22;71610;42.628;23.378;2024-01-15T06:58:33;22.50;24.40
82039;DHT22;71610;42.628;23.378;2024-01-15T07:01:00;22.50;24.40
82039;DHT22;71610;42.628;23.378;2024-01-15T07:03:25;22.50;24.10
82039;DHT22;71610;42.628;23.378;2024-01-15T07:05:51;22.50;23.80
82039;DHT22;71610;42.628;23.378;2024-01-15T07:08:17;22.50;23.20
82039;DHT22;71610;42.628;23.378;2024-01-15T07:10:43;22.50;22.80
82039;DHT22;71610;42.628;23.378;2024-01-15T07:13:09;22.50;22.60
82039;DHT22;71610;42.628;23.378;2024-01-15T07:15:34;22.40;22.50
82039;DHT22;71610;42.628;23.378;2024-01-15T07:18:00;22.50;22.60
82039;DHT22;71610;42.628;23.378;2024-01-15T07:20:26;22.50;23.10
82039;DHT22;71610;42.628;23.378;2024-01-15T07:22:51;22.50;23.50
82039;DHT22;71610;42.628;23.378;2024-01-15T07:25:17;22.50;23.60
82039;DHT22;71610;42.628;23.378;2024-01-15T07:27:43;22.50;23.60
82039;DHT22;71610;42.628;23.378;2024-01-15T07:30:11;22.50;23.60
82039;DHT22;71610;42.628;23.378;2024-01-15T07:32:37;22.50;24.00
82039;DHT22;71610;42.628;23.378;2024-01-15T07:35:04;22.60;24.60
82039;DHT22;71610;42.628;23.378;2024-01-15T07:37:30;22.50;24.90
82039;DHT22;71610;42.628;23.378;2024-01-15T07:39:55;22.60;25.20
82039;DHT22;71610;42.628;23.378;2024-01-15T07:42:21;22.60;25.50
82039;DHT22;71610;42.628;23.378;2024-01-15T07:44:47;22.60;25.60
82039;DHT22;71610;42.628;23.378;2024-01-15T07:47:13;22.60;26.20
82039;DHT22;71610;42.628;23.378;2024-01-15T07:49:38;22.70;26.40
82039;DHT22;71610;42.628;23.378;2024-01-15T07:52:04;22.70;26.50
82039;DHT22;71610;42.628;23.378;2024-01-15T07:54:31;22.80;26.60
82039;DHT22;71610;42.628;23.378;2024-01-15T07:56:59;22.80;26.70
82039;DHT22;71610;42.628;23.378;2024-01-15T07:59:25;22.80;26.70
82039;DHT22;71610;42.628;23.378;2024-01-15T08:01:52;22.80;26.90
82039;DHT22;71610;42.628;23.378;2024-01-15T08:04:20;22.90;27.00
82039;DHT22;71610;42.628;23.378;2024-01-15T08:06:46;22.90;27.00
82039;DHT22;71610;42.628;23.378;2024-01-15T08:09:12;22.90;26.80
82039;DHT22;71610;42.628;23.378;2024-01-15T08:11:42;22.90;26.60
82039;DHT22;71610;42.628;23.378;2024-01-15T08:14:08;23.00;26.50
82039;DHT22;71610;42.628;23.378;2024-01-15T08:16:35;23.00;26.20
82039;DHT22;71610;42.628;23.378;2024-01-15T08:19:01;23.00;26.10
82039;DHT22;71610;42.628;23.378;2024-01-15T08:21:27;23.00;26.10
82039;DHT22;71610;42.628;23.378;2024-01-15T08:23:58;23.00;26.00
82039;DHT22;71610;42.628;23.378;2024-01-15T08:26:24;23.00;26.00
82039;DHT22;71610;42.628;23.378;2024-01-15T08:28:50;23.00;25.90
82039;DHT22;71610;42.628;23.378;2024-01-15T08:31:16;23.00;26.00
82039;DHT22;71610;42.628;23.378;2024-01-15T08:33:42;23.00;26.20
82039;DHT22;71610;42.628;23.378;2024-01-15T08:36:09;23.00;26.40
82039;DHT22;71610;42.628;23.378;2024-01-15T08:38:35;23.00;26.40
82039;DHT22;71610;42.628;23.378;2024-01-15T08:41:01;23.00;26.30
82039;DHT22;71610;42.628;23.378;2024-01-15T08:43:27;23.00;26.10
82039;DHT22;71610;42.628;23.378;2024-01-15T08:45:53;23.00;25.50
82039;DHT22;71610;42.628;23.378;2024-01-15T08:48:19;23.00;25.50
82039;DHT22;71610;42.628;23.378;2024-01-15T08:50:45;23.00;25.70
82039;DHT22;71610;42.628;23.378;2024-01-15T08:53:12;23.00;25.70
82039;DHT22;71610;42.628;23.378;2024-01-15T08:55:38;23.00;25.40
82039;DHT22;71610;42.628;23.378;2024-01-15T08:58:04;23.00;25.00
82039;DHT22;71610;42.628;23.378;2024-01-15T09:00:30;23.00;25.00
82039;DHT22;71610;42.628;23.378;2024-01-15T09:02:56;23.00;25.10
82039;DHT22;71610;42.628;23.378;2024-01-15T09:05:22;23.00;25.40
82039;DHT22;71610;42.628;23.378;2024-01-15T09:07:48;23.00;25.90
82039;DHT22;71610;42.628;23.378;2024-01-15T09:10:14;23.10;26.40
82039;DHT22;71610;42.628;23.378;2024-01-15T09:12:40;23.10;26.70
82039;DHT22;71610;42.628;23.378;2024-01-15T09:15:06;23.10;26.80
82039;DHT22;71610;42.628;23.378;2024-01-15T09:17:32;23.10;27.00
82039;DHT22;71610;42.628;23.378;2024-01-15T09:19:58;23.10;27.20
82039;DHT22;71610;42.628;23.378;2024-01-15T09:22:24;23.10;27.30
82039;DHT22;71610;42.628;23.378;2024-01-15T09:24:49;23.20;27.60
82039;DHT22;71610;42.628;23.378;2024-01-15T09:27:15;23.20;28.00
82039;DHT22;71610;42.628;23.378;2024-01-15T09:29:42;23.20;28.10
82039;DHT22;71610;42.628;23.378;2024-01-15T09:32:08;23.20;28.20
82039;DHT22;71610;42.628;23.378;2024-01-15T09:34:34;23.20;28.10
82039;DHT22;71610;42.628;23.378;2024-01-15T09:37:00;23.20;28.20
82039;DHT22;71610;42.628;23.378;2024-01-15T09:39:27;23.20;28.20
82039;DHT22;71610;42.628;23.378;2024-01-15T09:41:54;23.30;28.40
82039;DHT22;71610;42.628;23.378;2024-01-15T09:44:21;23.20;28.90
82039;DHT22;71610;42.628;23.378;2024-01-15T09:46:47;23.30;29.30
82039;DHT22;71610;42.628;23.378;2024-01-15T09:49:16;23.30;30.50
82039;DHT22;71610;42.628;23.378;2024-01-15T09:51:42;23.30;31.60
82039;DHT22;71610;42.628;23.378;2024-01-15T09:54:08;23.30;31.00
82039;DHT22;71610;42.628;23.378;2024-01-15T09:56:34;23.30;31.00
82039;DHT22;71610;42.628;23.378;2024-01-15T09:59:01;23.40;31.30
82039;DHT22;71610;42.628;23.378;2024-01-15T10:01:28;23.40;31.30
82039;DHT22;71610;42.628;23.378;2024-01-15T10:03:55;23.40;31.50
82039;DHT22;71610;42.628;23.378;2024-01-15T10:06:21;23.40;31.60
82039;DHT22;71610;42.628;23.378;2024-01-15T10:08:49;23.40;31.80
82039;DHT22;71610;42.628;23.378;2024-01-15T10:11:15;23.50;31.40
82039;DHT22;71610;42.628;23.378;2024-01-15T10:13:43;23.40;30.30
82039;DHT22;71610;42.628;23.378;2024-01-15T10:16:09;23.40;30.00
82039;DHT22;71610;42.628;23.378;2024-01-15T10:18:36;23.40;29.70
82039;DHT22;71610;42.628;23.378;2024-01-15T10:21:06;23.40;30.20
82039;DHT22;71610;42.628;23.378;2024-01-15T10:23:32;23.40;29.20
82039;DHT22;71610;42.628;23.378;2024-01-15T10:25:58;23.40;29.10
82039;DHT22;71610;42.628;23.378;2024-01-15T10:28:26;23.40;29.20
82039;DHT22;71610;42.628;23.378;2024-01-15T10:30:55;23.40;29.30
82039;DHT22;71610;42.628;23.378;2024-01-15T10:33:23;23.40;29.70
82039;DHT22;71610;42.628;23.378;2024-01-15T10:35:56;23.40;29.90
82039;DHT22;71610;42.628;23.378;2024-01-15T10:38:23;23.40;30.00
82039;DHT22;71610;42.628;23.378;2024-01-15T10:40:53;23.40;30.60
82039;DHT22;71610;42.628;23.378;2024-01-15T10:43:19;23.40;32.20
82039;DHT22;71610;42.628;23.378;2024-01-15T10:45:46;23.30;33.20
82039;DHT22;71610;42.628;23.378;2024-01-15T10:48:12;23.30;32.60
82039;DHT22;71610;42.628;23.378;2024-01-15T10:50:38;23.30;31.50
82039;DHT22;71610;42.628;23.378;2024-01-15T10:53:05;23.30;30.60
82039;DHT22;71610;42.628;23.378;2024-01-15T10:55:31;23.30;30.00
82039;DHT22;71610;42.628;23.378;2024-01-15T10:57:59;23.30;29.70
82039;DHT22;71610;42.628;23.378;2024-01-15T11:00:25;23.30;29.50
82039;DHT22;71610;42.628;23.378;2024-01-15T11:02:52;23.20;29.30
82039;DHT22;71610;42.628;23.378;2024-01-15T11:05:21;23.20;29.10
82039;DHT22;71610;42.628;23.378;2024-01-15T11:07:50;23.20;28.60
82039;DHT22;71610;42.628;23.378;2024-01-15T11:10:41;23.20;28.20
82039;DHT22;71610;42.628;23.378;2024-01-15T11:13:14;23.20;28.10
82039;DHT22;71610;42.628;23.378;2024-01-15T11:16:19;23.20;28.30
82039;DHT22;71610;42.628;23.378;2024-01-15T11:21:23;23.20;28.20
82039;DHT22;71610;42.628;23.378;2024-01-15T11:23:51;23.20;28.20
82039;DHT22;71610;42.628;23.378;2024-01-15T11:26:45;23.20;28.00
82039;DHT22;71610;42.628;23.378;2024-01-15T11:29:29;23.20;27.80
82039;DHT22;71610;42.628;23.378;2024-01-15T11:31:56;23.20;28.00
82039;DHT22;71610;42.628;23.378;2024-01-15T11:34:55;23.10;28.20
82039;DHT22;71610;42.628;23.378;2024-01-15T11:37:24;23.20;28.40
82039;DHT22;71610;42.628;23.378;2024-01-15T11:39:54;23.20;28.70
82039;DHT22;71610;42.628;23.378;2024-01-15T11:42:21;23.20;28.80
82039;DHT22;71610;42.628;23.378;2024-01-15T11:44:47;23.10;28.90
82039;DHT22;71610;42.628;23.378;2024-01-15T11:47:13;23.20;28.80
82039;DHT22;71610;42.628;23.378;2024-01-15T11:52:23;23.10;28.90
82039;DHT22;71610;42.628;23.378;2024-01-15T12:00:03;23.20;28.90
82039;DHT22;71610;42.628;23.378;2024-01-15T12:02:29;23.20;28.90
82039;DHT22;71610;42.628;23.378;2024-01-15T12:04:55;23.20;29.10
82039;DHT22;71610;42.628;23.378;2024-01-15T12:07:21;23.20;29.20
82039;DHT22;71610;42.628;23.378;2024-01-15T12:09:46;23.20;29.30
82039;DHT22;71610;42.628;23.378;2024-01-15T12:12:39;23.20;29.40
82039;DHT22;71610;42.628;23.378;2024-01-15T12:15:03;23.20;29.50
82039;DHT22;71610;42.628;23.378;2024-01-15T12:17:29;23.20;29.40
82039;DHT22;71610;42.628;23.378;2024-01-15T12:19:56;23.20;29.50
82039;DHT22;71610;42.628;23.378;2024-01-15T12:22:22;23.30;29.40
82039;DHT22;71610;42.628;23.378;2024-01-15T12:24:47;23.20;29.30
82039;DHT22;71610;42.628;23.378;2024-01-15T12:27:13;23.20;29.30
82039;DHT22;71610;42.628;23.378;2024-01-15T12:29:39;23.30;29.30
82039;DHT22;71610;42.628;23.378;2024-01-15T12:32:06;23.30;29.40
82039;DHT22;71610;42.628;23.378;2024-01-15T12:34:33;23.20;29.30
82039;DHT22;71610;42.628;23.378;2024-01-15T12:37:00;23.30;30.20
82039;DHT22;71610;42.628;23.378;2024-01-15T12:39:25;23.30;29.40
82039;DHT22;71610;42.628;23.378;2024-01-15T12:41:51;23.30;29.50
82039;DHT22;71610;42.628;23.378;2024-01-15T12:44:17;23.30;29.50
82039;DHT22;71610;42.628;23.378;2024-01-15T12:46:43;23.30;29.60
82039;DHT22;71610;42.628;23.378;2024-01-15T12:49:09;23.30;29.60
82039;DHT22;71610;42.628;23.378;2024-01-15T12:51:35;23.30;29.60
82039;DHT22;71610;42.628;23.378;2024-01-15T12:54:00;23.30;29.60
82039;DHT22;71610;42.628;23.378;2024-01-15T12:56:26;23.30;29.60
82039;DHT22;71610;42.628;23.378;2024-01-15T12:58:52;23.30;29.80
82039;DHT22;71610;42.628;23.378;2024-01-15T13:01:18;23.30;30.00
82039;DHT22;71610;42.628;23.378;2024-01-15T13:03:43;23.30;30.10
82039;DHT22;71610;42.628;23.378;2024-01-15T13:06:09;23.30;30.10
82039;DHT22;71610;42.628;23.378;2024-01-15T13:08:35;23.30;30.00
82039;DHT22;71610;42.628;23.378;2024-01-15T13:11:00;23.30;30.20
82039;DHT22;71610;42.628;23.378;2024-01-15T13:13:26;23.30;30.30
82039;DHT22;71610;42.628;23.378;2024-01-15T13:15:53;23.30;30.50
82039;DHT22;71610;42.628;23.378;2024-01-15T13:18:18;23.30;30.50
82039;DHT22;71610;42.628;23.378;2024-01-15T13:20:44;23.30;30.80
82039;DHT22;71610;42.628;23.378;2024-01-15T13:23:11;23.30;31.20
82039;DHT22;71610;42.628;23.378;2024-01-15T13:25:37;23.40;31.60
82039;DHT22;71610;42.628;23.378;2024-01-15T13:28:05;23.40;31.90
82039;DHT22;71610;42.628;23.378;2024-01-15T13:30:30;23.40;31.90
82039;DHT22;71610;42.628;23.378;2024-01-15T13:32:57;23.40;31.60
82039;DHT22;71610;42.628;23.378;2024-01-15T13:35:23;23.50;31.80
82039;DHT22;71610;42.628;23.378;2024-01-15T13:37:49;23.50;32.30
82039;DHT22;71610;42.628;23.378;2024-01-15T13:40:15;23.50;32.60
82039;DHT22;71610;42.628;23.378;2024-01-15T13:42:48;23.60;32.90
82039;DHT22;71610;42.628;23.378;2024-01-15T13:45:14;23.60;34.20
82039;DHT22;71610;42.628;23.378;2024-01-15T13:47:40;23.60;33.20
82039;DHT22;71610;42.628;23.378;2024-01-15T13:50:08;23.60;33.20
82039;DHT22;71610;42.628;23.378;2024-01-15T13:52:35;23.60;33.20
82039;DHT22;71610;42.628;23.378;2024-01-15T13:55:00;23.70;32.90
82039;DHT22;71610;42.628;23.378;2024-01-15T13:57:27;23.70;32.60
82039;DHT22;71610;42.628;23.378;2024-01-15T13:59:52;23.70;32.70
82039;DHT22;71610;42.628;23.378;2024-01-15T14:02:18;23.70;32.70
82039;DHT22;71610;42.628;23.378;2024-01-15T14:04:46;23.70;32.40
82039;DHT22;71610;42.628;23.378;2024-01-15T14:07:11;23.70;32.30
82039;DHT22;71610;42.628;23.378;2024-01-15T14:09:37;23.70;32.50
82039;DHT22;71610;42.628;23.378;2024-01-15T14:12:03;23.70;32.40
82039;DHT22;71610;42.628;23.378;2024-01-15T14:14:29;23.70;32.60
82039;DHT22;71610;42.628;23.378;2024-01-15T14:16:55;23.70;32.60
82039;DHT22;71610;42.628;23.378;2024-01-15T14:19:21;23.80;32.70
82039;DHT22;71610;42.628;23.378;2024-01-15T14:21:46;23.80;32.80
82039;DHT22;71610;42.628;23.378;2024-01-15T14:24:12;23.80;32.70
82039;DHT22;71610;42.628;23.378;2024-01-15T14:26:38;23.80;32.80
82039;DHT22;71610;42.628;23.378;2024-01-15T14:29:04;23.80;32.30
82039;DHT22;71610;42.628;23.378;2024-01-15T14:31:31;23.70;32.60
82039;DHT22;71610;42.628;23.378;2024-01-15T14:33:58;23.70;33.20
82039;DHT22;71610;42.628;23.378;2024-01-15T14:36:24;23.70;33.80
82039;DHT22;71610;42.628;23.378;2024-01-15T14:38:50;23.70;34.30
82039;DHT22;71610;42.628;23.378;2024-01-15T14:41:16;23.80;34.70
82039;DHT22;71610;42.628;23.378;2024-01-15T14:43:42;23.80;34.70
82039;DHT22;71610;42.628;23.378;2024-01-15T14:46:08;23.80;34.80
82039;DHT22;71610;42.628;23.378;2024-01-15T14:48:34;23.80;34.70
82039;DHT22;71610;42.628;23.378;2024-01-15T14:50:59;23.80;34.60
82039;DHT22;71610;42.628;23.378;2024-01-15T14:53:25;23.80;34.60
82039;DHT22;71610;42.628;23.378;2024-01-15T14:55:51;23.80;34.60
82039;DHT22;71610;42.628;23.378;2024-01-15T14:58:16;23.80;34.60
82039;DHT22;71610;42.628;23.378;2024-01-15T15:00:42;23.80;34.60
82039;DHT22;71610;42.628;23.378;2024-01-15T15:03:08;23.80;34.70
82039;DHT22;71610;42.628;23.378;2024-01-15T15:05:35;23.80;34.90
82039;DHT22;71610;42.628;23.378;2024-01-15T15:08:01;23.80;35.00
82039;DHT22;71610;42.628;23.378;2024-01-15T15:10:28;23.80;35.00
82039;DHT22;71610;42.628;23.378;2024-01-15T15:12:54;23.80;34.90
82039;DHT22;71610;42.628;23.378;2024-01-15T15:15:20;23.80;35.00
82039;DHT22;71610;42.628;23.378;2024-01-15T15:17:45;23.80;35.20
82039;DHT22;71610;42.628;23.378;2024-01-15T15:20:11;23.80;35.20
82039;DHT22;71610;42.628;23.378;2024-01-15T15:22:37;23.80;35.30
82039;DHT22;71610;42.628;23.378;2024-01-15T15:25:03;23.80;35.30
82039;DHT22;71610;42.628;23.378;2024-01-15T15:27:29;23.80;35.10
82039;DHT22;71610;42.628;23.378;2024-01-15T15:29:54;23.80;35.00
82039;DHT22;71610;42.628;23.378;2024-01-15T15:32:21;23.70;36.00
82039;DHT22;71610;42.628;23.378;2024-01-15T15:34:46;23.70;34.70
82039;DHT22;71610;42.628;23.378;2024-01-15T15:37:12;23.70;34.60
82039;DHT22;71610;42.628;23.378;2024-01-15T15:39:41;23.70;34.40
82039;DHT22;71610;42.628;23.378;2024-01-15T15:42:07;23.70;34.60
82039;DHT22;71610;42.628;23.378;2024-01-15T15:44:32;23.70;34.50
82039;DHT22;71610;42.628;23.378;2024-01-15T15:46:58;23.60;34.40
82039;DHT22;71610;42.628;23.378;2024-01-15T15:49:24;23.60;34.20
82039;DHT22;71610;42.628;23.378;2024-01-15T15:51:50;23.60;33.80
82039;DHT22;71610;42.628;23.378;2024-01-15T15:54:15;23.60;33.40
82039;DHT22;71610;42.628;23.378;2024-01-15T15:56:41;23.60;33.20
82039;DHT22;71610;42.628;23.378;2024-01-15T15:59:13;23.60;33.20
82039;DHT22;71610;42.628;23.378;2024-01-15T16:01:38;23.60;33.20
82039;DHT22;71610;42.628;23.378;2024-01-15T16:04:04;23.60;33.10
82039;DHT22;71610;42.628;23.378;2024-01-15T16:06:30;23.50;33.00
82039;DHT22;71610;42.628;23.378;2024-01-15T16:08:56;23.50;32.90
82039;DHT22;71610;42.628;23.378;2024-01-15T16:11:21;23.50;32.90
82039;DHT22;71610;42.628;23.378;2024-01-15T16:13:48;23.50;32.80
82039;DHT22;71610;42.628;23.378;2024-01-15T16:16:14;23.50;32.70
82039;DHT22;71610;42.628;23.378;2024-01-15T16:18:39;23.50;32.70
82039;DHT22;71610;42.628;23.378;2024-01-15T16:21:05;23.50;32.60
82039;DHT22;71610;42.628;23.378;2024-01-15T16:23:31;23.40;32.50
82039;DHT22;71610;42.628;23.378;2024-01-15T16:25:57;23.40;32.40
82039;DHT22;71610;42.628;23.378;2024-01-15T16:28:22;23.40;32.40
82039;DHT22;71610;42.628;23.378;2024-01-15T16:30:48;23.40;32.30
82039;DHT22;71610;42.628;23.378;2024-01-15T16:33:14;23.40;32.20
82039;DHT22;71610;42.628;23.378;2024-01-15T16:35:40;23.40;32.20
82039;DHT22;71610;42.628;23.378;2024-01-15T16:38:05;23.40;32.20
82039;DHT22;71610;42.628;23.378;2024-01-15T16:40:31;23.40;32.20
82039;DHT22;71610;42.628;23.378;2024-01-15T16:42:57;23.30;32.10
82039;DHT22;71610;42.628;23.378;2024-01-15T16:45:23;23.40;32.10
82039;DHT22;71610;42.628;23.378;2024-01-15T16:47:48;23.40;31.90
82039;DHT22;71610;42.628;23.378;2024-01-15T16:50:14;23.40;31.90
82039;DHT22;71610;42.628;23.378;2024-01-15T16:52:40;23.30;31.90
82039;DHT22;71610;42.628;23.378;2024-01-15T16:55:06;23.30;31.80
82039;DHT22;71610;42.628;23.378;2024-01-15T16:57:31;23.30;31.80
82039;DHT22;71610;42.628;23.378;2024-01-15T16:59:57;23.30;31.70
82039;DHT22;71610;42.628;23.378;2024-01-15T17:02:23;23.30;31.70
82039;DHT22;71610;42.628;23.378;2024-01-15T17:04:49;23.30;31.60
82039;DHT22;71610;42.628;23.378;2024-01-15T17:07:15;23.30;31.60
82039;DHT22;71610;42.628;23.378;2024-01-15T17:09:42;23.30;31.50
82039;DHT22;71610;42.628;23.378;2024-01-15T17:12:09;23.30;31.50
82039;DHT22;71610;42.628;23.378;2024-01-15T17:14:34;23.30;31.40
82039;DHT22;71610;42.628;23.378;2024-01-15T17:17:00;23.30;31.40
82039;DHT22;71610;42.628;23.378;2024-01-15T17:19:26;23.30;31.40
82039;DHT22;71610;42.628;23.378;2024-01-15T17:21:53;23.30;31.30
82039;DHT22;71610;42.628;23.378;2024-01-15T17:24:19;23.30;31.30
82039;DHT22;71610;42.628;23.378;2024-01-15T17:26:45;23.30;31.20
82039;DHT22;71610;42.628;23.378;2024-01-15T17:29:11;23.30;31.20
82039;DHT22;71610;42.628;23.378;2024-01-15T17:31:37;23.30;31.10
82039;DHT22;71610;42.628;23.378;2024-01-15T17:34:03;23.30;31.10
82039;DHT22;71610;42.628;23.378;2024-01-15T17:36:29;23.30;31.10
82039;DHT22;71610;42.628;23.378;2024-01-15T17:38:55;23.30;31.10
82039;DHT22;71610;42.628;23.378;2024-01-15T17:41:23;23.30;31.00
82039;DHT22;71610;42.628;23.378;2024-01-15T17:43:48;23.30;30.90
82039;DHT22;71610;42.628;23.378;2024-01-15T17:46:14;23.30;30.90
82039;DHT22;71610;42.628;23.378;2024-01-15T17:48:40;23.30;30.80
82039;DHT22;71610;42.628;23.378;2024-01-15T17:51:06;23.30;30.80
82039;DHT22;71610;42.628;23.378;2024-01-15T17:53:32;23.30;30.80
82039;DHT22;71610;42.628;23.378;2024-01-15T17:56:00;23.30;30.80
82039;DHT22;71610;42.628;23.378;2024-01-15T17:58:26;23.30;30.70
82039;DHT22;71610;42.628;23.378;2024-01-15T18:00:52;23.30;30.70
82039;DHT22;71610;42.628;23.378;2024-01-15T18:03:18;23.30;30.60
82039;DHT22;71610;42.628;23.378;2024-01-15T18:05:43;23.30;30.60
82039;DHT22;71610;42.628;23.378;2024-01-15T18:08:09;23.30;30.60
82039;DHT22;71610;42.628;23.378;2024-01-15T18:10:35;23.30;30.50
82039;DHT22;71610;42.628;23.378;2024-01-15T18:13:01;23.30;30.50
82039;DHT22;71610;42.628;23.378;2024-01-15T18:15:27;23.20;30.30
82039;DHT22;71610;42.628;23.378;2024-01-15T18:17:52;23.30;30.40
82039;DHT22;71610;42.628;23.378;2024-01-15T18:20:21;23.30;30.30
82039;DHT22;71610;42.628;23.378;2024-01-15T18:22:48;23.30;30.40
82039;DHT22;71610;42.628;23.378;2024-01-15T18:25:15;23.20;30.20
82039;DHT22;71610;42.628;23.378;2024-01-15T18:27:40;23.30;30.30
82039;DHT22;71610;42.628;23.378;2024-01-15T18:30:07;23.20;30.20
82039;DHT22;71610;42.628;23.378;2024-01-15T18:32:35;23.20;30.20
82039;DHT22;71610;42.628;23.378;2024-01-15T18:35:00;23.30;30.20
82039;DHT22;71610;42.628;23.378;2024-01-15T18:37:26;23.30;30.10
82039;DHT22;71610;42.628;23.378;2024-01-15T18:39:53;23.30;30.10
82039;DHT22;71610;42.628;23.378;2024-01-15T18:42:19;23.20;30.00
82039;DHT22;71610;42.628;23.378;2024-01-15T18:44:44;23.30;30.10
82039;DHT22;71610;42.628;23.378;2024-01-15T18:47:10;23.20;30.00
82039;DHT22;71610;42.628;23.378;2024-01-15T18:49:36;23.30;30.00
82039;DHT22;71610;42.628;23.378;2024-01-15T18:52:02;23.20;30.00
82039;DHT22;71610;42.628;23.378;2024-01-15T18:54:28;23.30;30.00
82039;DHT22;71610;42.628;23.378;2024-01-15T18:56:54;23.20;29.90
82039;DHT22;71610;42.628;23.378;2024-01-15T18:59:19;23.30;30.00
82039;DHT22;71610;42.628;23.378;2024-01-15T19:01:45;23.30;29.90
82039;DHT22;71610;42.628;23.378;2024-01-15T19:04:11;23.30;30.00
82039;DHT22;71610;42.628;23.378;2024-01-15T19:06:38;23.30;29.90
82039;DHT22;71610;42.628;23.378;2024-01-15T19:09:03;23.30;29.90
82039;DHT22;71610;42.628;23.378;2024-01-15T19:11:29;23.30;29.90
82039;DHT22;71610;42.628;23.378;2024-01-15T19:13:55;23.30;29.90
82039;DHT22;71610;42.628;23.378;2024-01-15T19:16:21;23.30;30.80
82039;DHT22;71610;42.628;23.378;2024-01-15T19:18:50;23.30;29.80
82039;DHT22;71610;42.628;23.378;2024-01-15T19:21:16;23.30;29.80
82039;DHT22;71610;42.628;23.378;2024-01-15T19:23:42;23.20;29.70
82039;DHT22;71610;42.628;23.378;2024-01-15T19:26:08;23.20;29.70
82039;DHT22;71610;42.628;23.378;2024-01-15T19:28:40;23.30;29.70
82039;DHT22;71610;42.628;23.378;2024-01-15T19:31:06;23.20;29.70
82039;DHT22;71610;42.628;23.378;2024-01-15T19:33:32;23.30;29.70
82039;DHT22;71610;42.628;23.378;2024-01-15T19:36:00;23.30;29.60
82039;DHT22;71610;42.628;23.378;2024-01-15T19:38:26;23.30;29.60
82039;DHT22;71610;42.628;23.378;2024-01-15T19:40:52;23.30;29.60
82039;DHT22;71610;42.628;23.378;2024-01-15T19:43:18;23.20;29.60
82039;DHT22;71610;42.628;23.378;2024-01-15T19:45:44;23.30;29.60
82039;DHT22;71610;42.628;23.378;2024-01-15T19:48:09;23.30;29.60
82039;DHT22;71610;42.628;23.378;2024-01-15T19:50:36;23.30;29.60
82039;DHT22;71610;42.628;23.378;2024-01-15T19:53:02;23.30;29.60
82039;DHT22;71610;42.628;23.378;2024-01-15T19:55:28;23.30;29.60
82039;DHT22;71610;42.628;23.378;2024-01-15T19:57:54;23.30;29.50
82039;DHT22;71610;42.628;23.378;2024-01-15T20:00:20;23.20;29.40
82039;DHT22;71610;42.628;23.378;2024-01-15T20:02:45;23.30;29.40
82039;DHT22;71610;42.628;23.378;2024-01-15T20:05:11;23.20;29.40
82039;DHT22;71610;42.628;23.378;2024-01-15T20:07:39;23.30;29.40
82039;DHT22;71610;42.628;23.378;2024-01-15T20:10:05;23.20;29.30
82039;DHT22;71610;42.628;23.378;2024-01-15T20:12:31;23.30;29.50
82039;DHT22;71610;42.628;23.378;2024-01-15T20:14:57;23.30;29.40
82039;DHT22;71610;42.628;23.378;2024-01-15T20:17:23;23.30;29.40
82039;DHT22;71610;42.628;23.378;2024-01-15T20:19:49;23.30;29.30
82039;DHT22;71610;42.628;23.378;2024-01-15T20:22:15;23.20;29.30
82039;DHT22;71610;42.628;23.378;2024-01-15T20:24:40;23.30;29.30
82039;DHT22;71610;42.628;23.378;2024-01-15T20:27:06;23.30;29.30
82039;DHT22;71610;42.628;23.378;2024-01-15T20:29:33;23.30;29.30
82039;DHT22;71610;42.628;23.378;2024-01-15T20:31:58;23.30;29.30
82039;DHT22;71610;42.628;23.378;2024-01-15T20:34:24;23.30;29.30
82039;DHT22;71610;42.628;23.378;2024-01-15T20:36:50;23.30;29.30
82039;DHT22;71610;42.628;23.378;2024-01-15T20:39:16;23.20;29.20
82039;DHT22;71610;42.628;23.378;2024-01-15T20:41:42;23.30;29.30
82039;DHT22;71610;42.628;23.378;2024-01-15T20:44:07;23.20;29.20
82039;DHT22;71610;42.628;23.378;2024-01-15T20:46:33;23.30;29.20
82039;DHT22;71610;42.628;23.378;2024-01-15T20:48:59;23.30;29.20
82039;DHT22;71610;42.628;23.378;2024-01-15T20:51:25;23.30;29.20
82039;DHT22;71610;42.628;23.378;2024-01-15T20:53:50;23.30;29.10
82039;DHT22;71610;42.628;23.378;2024-01-15T20:56:16;23.30;29.10
82039;DHT22;71610;42.628;23.378;2024-01-15T20:58:42;23.30;29.10
82039;DHT22;71610;42.628;23.378;2024-01-15T21:01:10;23.30;29.10
82039;DHT22;71610;42.628;23.378;2024-01-15T21:03:35;23.30;29.10
82039;DHT22;71610;42.628;23.378;2024-01-15T21:06:01;23.30;29.10
82039;DHT22;71610;42.628;23.378;2024-01-15T21:08:27;23.30;29.00
82039;DHT22;71610;42.628;23.378;2024-01-15T21:10:54;23.30;29.00
82039;DHT22;71610;42.628;23.378;2024-01-15T21:13:20;23.20;29.00
82039;DHT22;71610;42.628;23.378;2024-01-15T21:15:45;23.30;29.00
82039;DHT22;71610;42.628;23.378;2024-01-15T21:18:12;23.30;29.00
82039;DHT22;71610;42.628;23.378;2024-01-15T21:20:38;23.30;29.00
82039;DHT22;71610;42.628;23.378;2024-01-15T21:23:04;23.30;29.00
82039;DHT22;71610;42.628;23.378;2024-01-15T21:25:30;23.30;28.90
82039;DHT22;71610;42.628;23.378;2024-01-15T21:27:56;23.30;28.90
82039;DHT22;71610;42.628;23.378;2024-01-15T21:30:22;23.30;28.90
82039;DHT22;71610;42.628;23.378;2024-01-15T21:32:48;23.30;28.90
82039;DHT22;71610;42.628;23.378;2024-01-15T21:35:14;23.30;28.90
82039;DHT22;71610;42.628;23.378;2024-01-15T21:37:40;23.30;28.90
82039;DHT22;71610;42.628;23.378;2024-01-15T21:40:06;23.30;28.90
82039;DHT22;71610;42.628;23.378;2024-01-15T21:42:36;23.30;28.90
82039;DHT22;71610;42.628;23.378;2024-01-15T21:45:02;23.30;28.90
82039;DHT22;71610;42.628;23.378;2024-01-15T21:47:28;23.30;28.80
82039;DHT22;71610;42.628;23.378;2024-01-15T21:49:55;23.30;28.80
82039;DHT22;71610;42.628;23.378;2024-01-15T21:52:24;23.30;28.80
82039;DHT22;71610;42.628;23.378;2024-01-15T21:54:49;23.30;28.80
82039;DHT22;71610;42.628;23.378;2024-01-15T21:57:15;23.30;28.80
82039;DHT22;71610;42.628;23.378;2024-01-15T21:59:41;23.30;28.80
82039;DHT22;71610;42.628;23.378;2024-01-15T22:02:07;23.30;28.80
82039;DHT22;71610;42.628;23.378;2024-01-15T22:04:35;23.30;28.80